Time;durP1;ratioP1;P1;durP2;ratioP2;P2;SDS_P1;SDS_P2;PMS_P1;PMS_P2;Temp;Humidity;BMP_temperature;BMP_pressure;BME280_temperature;BME280_humidity;BME280_pressure;Samples;Min_cycle;Max_cycle;Signal;HPM_P1;HPM_P2
2020/12/22 00:01:13;;;;;;;7.20;5.03;;;1.30;70.50;;;;;;5053301;28;20017;-58
2020/12/22 00:03:40;;;;;;;6.43;4.47;;;1.30;70.60;;;;;;5055313;28;20036;-59
2020/12/22 00:06:06;;;;;;;6.45;4.97;;;1.30;70.20;;;;;;5045792;28;20052;-59
2020/12/22 00:08:31;;;;;;;6.90;4.53;;;1.30;70.30;;;;;;5049222;28;20104;-59
2020/12/22 00:10:57;;;;;;;8.38;5.15;;;1.30;70.20;;;;;;5050069;28;20033;-59
2020/12/22 00:13:23;;;;;;;7.55;5.35;;;1.30;70.00;;;;;;5035967;28;20409;-60
2020/12/22 00:15:49;;;;;;;8.80;5.80;;;1.30;70.00;;;;;;5036642;28;20385;-60
2020/12/22 00:18:15;;;;;;;8.18;5.43;;;1.20;69.90;;;;;;5042827;28;20055;-58
2020/12/22 00:20:40;;;;;;;9.70;6.05;;;1.20;70.20;;;;;;5047865;28;20021;-58
2020/12/22 00:23:06;;;;;;;9.60;6.03;;;1.20;70.60;;;;;;5040576;28;20029;-60
2020/12/22 00:25:32;;;;;;;10.48;5.95;;;1.20;70.90;;;;;;5052938;28;20473;-59
2020/12/22 00:27:58;;;;;;;10.05;6.10;;;1.20;70.90;;;;;;5049467;28;20094;-59
2020/12/22 00:30:24;;;;;;;10.90;6.10;;;1.30;70.70;;;;;;5039282;28;20312;-58
2020/12/22 00:32:49;;;;;;;13.82;6.72;;;1.30;70.90;;;;;;5054122;28;20033;-58
2020/12/22 00:35:15;;;;;;;10.98;6.30;;;1.30;70.80;;;;;;5051039;28;20358;-58
2020/12/22 00:37:41;;;;;;;10.13;6.07;;;1.30;70.40;;;;;;5053042;28;20021;-59
2020/12/22 00:40:06;;;;;;;11.90;6.68;;;1.30;70.50;;;;;;5045629;28;20021;-59
2020/12/22 00:42:32;;;;;;;10.90;6.82;;;1.30;70.70;;;;;;5047708;28;20021;-59
2020/12/22 00:44:59;;;;;;;11.32;6.10;;;1.30;70.90;;;;;;5043183;28;20370;-58
2020/12/22 00:47:25;;;;;;;10.05;6.03;;;1.40;70.90;;;;;;5045881;28;20082;-59
2020/12/22 00:49:50;;;;;;;7.97;5.40;;;1.50;70.90;;;;;;5053266;28;20033;-59
2020/12/22 00:52:17;;;;;;;9.52;5.53;;;1.60;71.10;;;;;;5052155;28;20022;-59
2020/12/22 00:54:43;;;;;;;9.18;5.35;;;1.60;70.80;;;;;;5066837;28;20043;-59
2020/12/22 00:57:08;;;;;;;10.35;6.68;;;1.70;70.80;;;;;;5043329;28;20021;-60
2020/12/22 00:59:37;;;;;;;9.75;6.15;;;1.80;70.60;;;;;;5054377;28;20066;-59
2020/12/22 01:02:05;;;;;;;8.85;6.15;;;1.70;69.90;;;;;;5052591;28;20035;-59
2020/12/22 01:04:31;;;;;;;8.63;5.40;;;1.70;70.00;;;;;;5051392;28;20021;-59
2020/12/22 01:06:57;;;;;;;10.05;5.65;;;1.70;70.30;;;;;;5052023;28;20017;-58
2020/12/22 01:09:23;;;;;;;10.68;6.57;;;1.80;70.30;;;;;;5047542;28;20025;-59
2020/12/22 01:11:49;;;;;;;9.95;6.50;;;1.80;70.20;;;;;;5053006;28;20060;-59
2020/12/22 01:14:14;;;;;;;10.68;6.32;;;1.80;70.10;;;;;;5046346;28;20108;-59
2020/12/22 01:16:40;;;;;;;9.38;6.03;;;1.80;70.00;;;;;;5052088;28;20037;-59
2020/12/22 01:19:06;;;;;;;11.25;6.45;;;1.90;70.00;;;;;;5043054;28;20370;-59
2020/12/22 01:21:31;;;;;;;10.50;6.32;;;1.90;69.80;;;;;;5041967;28;20017;-59
2020/12/22 01:23:57;;;;;;;8.30;5.88;;;1.90;70.00;;;;;;5073451;28;20028;-59
2020/12/22 01:26:25;;;;;;;9.27;6.18;;;1.90;69.90;;;;;;5065893;28;20074;-60
2020/12/22 01:28:52;;;;;;;9.30;6.60;;;2.00;69.80;;;;;;5061808;28;20049;-60
2020/12/22 01:31:23;;;;;;;10.55;7.25;;;2.00;69.70;;;;;;5060057;28;20025;-59
2020/12/22 01:33:49;;;;;;;10.70;6.60;;;2.00;69.60;;;;;;5041367;28;20031;-60
2020/12/22 01:36:15;;;;;;;12.93;7.68;;;2.00;69.60;;;;;;5041536;28;20025;-59
2020/12/22 01:38:41;;;;;;;10.43;7.10;;;2.00;69.60;;;;;;5044996;28;20032;-59
2020/12/22 01:41:07;;;;;;;11.60;7.63;;;2.00;69.50;;;;;;5039165;28;20017;-59
2020/12/22 01:43:33;;;;;;;13.27;8.68;;;2.00;69.60;;;;;;5039541;28;20076;-58
2020/12/22 01:45:59;;;;;;;12.02;7.90;;;1.90;69.30;;;;;;5036969;28;20032;-60
2020/12/22 01:48:26;;;;;;;12.35;7.85;;;1.90;69.40;;;;;;5040293;28;20444;-59
2020/12/22 01:50:52;;;;;;;8.80;6.45;;;1.90;69.50;;;;;;5041263;28;20028;-59
2020/12/22 01:53:17;;;;;;;13.25;8.10;;;1.90;69.50;;;;;;5051112;28;20031;-58
2020/12/22 01:55:44;;;;;;;12.18;7.72;;;1.90;69.60;;;;;;5047612;28;20041;-59
2020/12/22 01:58:10;;;;;;;12.45;7.70;;;1.90;69.60;;;;;;5040133;28;20013;-59
2020/12/22 02:00:36;;;;;;;12.88;8.27;;;1.90;69.60;;;;;;5052132;28;20022;-59
2020/12/22 02:03:04;;;;;;;12.32;8.73;;;1.90;69.60;;;;;;5053060;28;20021;-59
2020/12/22 02:05:32;;;;;;;11.70;7.70;;;1.90;69.80;;;;;;5050495;28;20036;-59
2020/12/22 02:07:58;;;;;;;11.30;7.32;;;1.90;69.50;;;;;;5052301;28;20044;-58
2020/12/22 02:10:24;;;;;;;13.70;8.70;;;1.90;69.60;;;;;;5037191;28;20064;-59
2020/12/22 02:12:50;;;;;;;11.73;8.13;;;1.90;69.90;;;;;;5052224;28;20025;-58
2020/12/22 02:15:15;;;;;;;14.10;8.27;;;1.90;69.70;;;;;;5041281;28;20036;-58
2020/12/22 02:17:41;;;;;;;12.27;7.78;;;1.90;69.60;;;;;;5049394;28;20025;-59
2020/12/22 02:20:07;;;;;;;16.15;9.77;;;1.90;69.80;;;;;;5049876;28;20032;-59
2020/12/22 02:22:34;;;;;;;12.05;8.10;;;1.90;69.60;;;;;;5053856;28;20115;-59
2020/12/22 02:25:00;;;;;;;14.95;9.27;;;1.90;69.80;;;;;;5035252;28;20108;-59
2020/12/22 02:27:26;;;;;;;15.55;8.90;;;1.90;69.60;;;;;;5034242;28;20030;-59
2020/12/22 02:29:51;;;;;;;19.95;11.27;;;2.00;70.30;;;;;;5052336;28;20607;-57
2020/12/22 02:32:17;;;;;;;16.40;10.32;;;2.00;69.80;;;;;;5052542;28;20056;-59
2020/12/22 02:34:44;;;;;;;13.70;7.95;;;2.00;69.90;;;;;;5039269;28;20029;-59
2020/12/22 02:37:10;;;;;;;13.98;8.77;;;2.00;69.70;;;;;;5048143;28;20036;-59
2020/12/22 02:39:35;;;;;;;17.45;10.80;;;2.00;69.70;;;;;;5045644;28;20029;-59
2020/12/22 02:42:01;;;;;;;13.23;8.15;;;2.00;69.80;;;;;;5041601;28;20343;-59
2020/12/22 02:44:27;;;;;;;18.35;10.25;;;2.00;69.50;;;;;;5034094;28;20029;-59
2020/12/22 02:46:53;;;;;;;14.02;8.95;;;1.90;69.60;;;;;;5046604;28;20032;-59
2020/12/22 02:49:19;;;;;;;15.27;9.13;;;1.90;69.90;;;;;;5045344;28;20074;-59
2020/12/22 02:51:44;;;;;;;17.15;10.73;;;1.90;69.80;;;;;;5044641;28;20029;-59
2020/12/22 02:54:10;;;;;;;14.20;9.60;;;1.90;69.80;;;;;;5038972;28;20026;-59
2020/12/22 02:56:36;;;;;;;16.40;9.77;;;1.90;70.10;;;;;;5039249;28;20147;-59
2020/12/22 02:59:01;;;;;;;13.32;8.98;;;1.90;70.20;;;;;;5043603;28;20063;-59
2020/12/22 03:01:27;;;;;;;17.25;10.35;;;1.90;70.30;;;;;;5053768;28;20022;-60
2020/12/22 03:03:53;;;;;;;16.58;10.18;;;1.90;70.00;;;;;;5053130;28;20017;-60
2020/12/22 03:06:19;;;;;;;19.90;11.32;;;1.90;69.60;;;;;;5052660;28;20365;-60
2020/12/22 03:08:44;;;;;;;20.38;11.52;;;1.80;69.80;;;;;;5049572;28;20032;-59
2020/12/22 03:11:10;;;;;;;20.88;10.75;;;1.80;70.40;;;;;;5049357;28;20025;-59
2020/12/22 03:13:36;;;;;;;15.98;9.52;;;1.90;70.60;;;;;;5048873;28;20443;-59
2020/12/22 03:16:01;;;;;;;19.00;9.45;;;1.90;70.70;;;;;;5053072;28;20361;-59
2020/12/22 03:18:27;;;;;;;17.90;9.65;;;1.90;70.50;;;;;;5039766;28;20101;-59
2020/12/22 03:20:53;;;;;;;18.88;11.25;;;1.90;70.60;;;;;;5040923;28;20056;-58
2020/12/22 03:23:19;;;;;;;19.65;10.82;;;1.90;70.60;;;;;;5042169;28;20025;-59
2020/12/22 03:25:45;;;;;;;14.90;9.68;;;2.00;70.90;;;;;;5066934;28;20024;-59
2020/12/22 03:28:10;;;;;;;19.85;11.27;;;2.00;70.90;;;;;;5056100;28;20044;-59
2020/12/22 03:30:36;;;;;;;21.85;13.57;;;2.00;70.70;;;;;;5061881;28;20024;-59
2020/12/22 03:33:02;;;;;;;17.45;10.45;;;2.10;70.80;;;;;;5050449;28;20029;-58
2020/12/22 03:35:28;;;;;;;19.27;11.45;;;2.10;70.80;;;;;;5051691;28;20522;-59
2020/12/22 03:37:54;;;;;;;22.05;12.27;;;2.20;70.60;;;;;;5044906;28;20021;-60
2020/12/22 03:40:20;;;;;;;19.27;12.10;;;2.20;70.70;;;;;;5048038;28;20510;-59
2020/12/22 03:42:46;;;;;;;23.20;12.23;;;2.20;70.50;;;;;;5044117;28;20028;-60
2020/12/22 03:45:12;;;;;;;17.23;10.52;;;2.20;70.60;;;;;;5042728;28;20060;-59
2020/12/22 03:47:38;;;;;;;19.60;10.82;;;2.20;70.50;;;;;;5051402;28;20077;-59
2020/12/22 03:50:04;;;;;;;22.15;11.75;;;2.30;70.70;;;;;;5055908;28;20083;-60
2020/12/22 03:52:30;;;;;;;18.65;11.50;;;2.30;70.60;;;;;;5044111;28;20029;-59
2020/12/22 03:54:56;;;;;;;26.63;14.07;;;2.30;70.60;;;;;;5046290;28;20496;-59
2020/12/22 03:57:21;;;;;;;23.40;12.60;;;2.30;70.60;;;;;;5042897;28;20103;-59
2020/12/22 03:59:47;;;;;;;21.40;12.95;;;2.40;70.50;;;;;;5037876;28;20026;-58
2020/12/22 04:02:13;;;;;;;23.17;12.07;;;2.40;70.40;;;;;;5052778;28;20054;-58
2020/12/22 04:04:39;;;;;;;22.95;13.02;;;2.40;70.40;;;;;;5046728;28;20028;-59
2020/12/22 04:07:05;;;;;;;22.23;12.10;;;2.40;70.30;;;;;;5053236;28;20028;-59
2020/12/22 04:09:30;;;;;;;25.08;12.52;;;2.50;70.30;;;;;;5053272;28;20082;-59
2020/12/22 04:11:56;;;;;;;22.80;13.13;;;2.40;70.20;;;;;;5049309;28;20407;-59
2020/12/22 04:14:22;;;;;;;23.65;13.02;;;2.40;70.10;;;;;;5052214;28;20342;-59
2020/12/22 04:16:49;;;;;;;24.15;13.18;;;2.50;70.90;;;;;;5048374;28;20017;-60
2020/12/22 04:19:15;;;;;;;23.13;12.10;;;2.50;70.30;;;;;;5050774;28;20028;-59
2020/12/22 04:21:41;;;;;;;21.35;12.43;;;2.50;70.50;;;;;;5054444;28;20100;-60
2020/12/22 04:24:07;;;;;;;19.30;11.50;;;2.50;70.30;;;;;;5054395;28;20155;-59
2020/12/22 04:26:33;;;;;;;21.65;11.70;;;2.50;70.40;;;;;;5053883;28;20493;-59
2020/12/22 04:29:00;;;;;;;23.38;13.90;;;2.50;70.10;;;;;;5050340;28;20060;-60
2020/12/22 04:31:25;;;;;;;22.10;11.98;;;2.50;70.00;;;;;;5024513;28;20025;-59
2020/12/22 04:33:53;;;;;;;25.23;13.90;;;2.50;70.10;;;;;;5040026;28;20458;-59
2020/12/22 04:36:20;;;;;;;21.77;12.38;;;2.50;69.90;;;;;;5026829;28;20029;-59
2020/12/22 04:38:46;;;;;;;22.75;12.38;;;2.50;70.10;;;;;;5020129;28;20026;-59
2020/12/22 04:41:13;;;;;;;23.58;12.25;;;2.50;70.10;;;;;;5047372;28;20474;-60
2020/12/22 04:43:40;;;;;;;22.83;13.02;;;2.60;70.20;;;;;;5026409;28;20033;-59
2020/12/22 04:46:07;;;;;;;23.08;12.98;;;2.50;70.10;;;;;;5025904;28;20061;-60
2020/12/22 04:48:39;;;;;;;24.48;13.02;;;2.60;70.00;;;;;;5025294;28;20022;-60
2020/12/22 04:51:09;;;;;;;18.88;10.95;;;2.60;70.20;;;;;;5041815;28;20385;-59
2020/12/22 04:53:36;;;;;;;22.27;12.35;;;2.50;69.90;;;;;;5029445;28;20064;-59
2020/12/22 04:56:04;;;;;;;23.73;13.27;;;2.60;70.10;;;;;;5019842;28;20073;-59
2020/12/22 04:58:30;;;;;;;21.60;11.27;;;2.50;69.90;;;;;;5021888;28;20018;-59
2020/12/22 05:00:58;;;;;;;20.13;11.40;;;2.60;69.90;;;;;;5026092;28;20041;-60
2020/12/22 05:03:24;;;;;;;24.35;13.25;;;2.60;69.80;;;;;;5034807;28;20386;-60
2020/12/22 05:05:51;;;;;;;21.10;11.68;;;2.60;69.90;;;;;;5030748;28;20072;-59
2020/12/22 05:08:17;;;;;;;22.13;12.10;;;2.60;70.00;;;;;;5034232;28;20036;-59
2020/12/22 05:10:45;;;;;;;24.42;12.68;;;2.60;70.00;;;;;;5034424;28;20037;-59
2020/12/22 05:13:14;;;;;;;26.45;13.88;;;2.50;69.90;;;;;;5037423;28;20548;-59
2020/12/22 05:15:49;;;;;;;26.40;14.77;;;2.50;70.00;;;;;;5022557;28;20377;-59
2020/12/22 05:18:15;;;;;;;22.75;13.50;;;2.60;70.10;;;;;;5025249;28;20010;-60
2020/12/22 05:20:45;;;;;;;21.58;12.65;;;2.60;70.40;;;;;;5017139;28;20026;-59
2020/12/22 05:23:18;;;;;;;22.60;12.38;;;2.60;70.20;;;;;;5014171;28;20052;-59
2020/12/22 05:25:46;;;;;;;22.27;12.40;;;2.60;70.20;;;;;;5030842;28;20029;-59
2020/12/22 05:28:17;;;;;;;21.35;12.77;;;2.60;70.90;;;;;;5027558;28;20047;-59
2020/12/22 05:30:46;;;;;;;22.30;12.93;;;2.60;70.10;;;;;;5050436;28;20028;-60
2020/12/22 05:33:12;;;;;;;24.35;12.85;;;2.60;70.10;;;;;;5045287;28;20025;-60
2020/12/22 05:35:47;;;;;;;22.73;12.20;;;2.60;70.40;;;;;;5055129;28;20036;-60
2020/12/22 05:38:14;;;;;;;23.40;13.27;;;2.60;70.40;;;;;;5042606;28;20017;-59
2020/12/22 05:40:41;;;;;;;24.55;15.05;;;2.60;70.50;;;;;;5051757;28;20020;-60
2020/12/22 05:43:07;;;;;;;24.15;13.25;;;2.60;70.60;;;;;;5045779;28;20025;-60
2020/12/22 05:45:35;;;;;;;27.30;14.52;;;2.60;70.40;;;;;;5045157;28;20029;-60
2020/12/22 05:48:02;;;;;;;34.58;15.25;;;2.60;70.30;;;;;;5037274;28;20452;-60
2020/12/22 05:50:28;;;;;;;21.48;12.45;;;2.60;70.30;;;;;;5051971;28;20117;-60
2020/12/22 05:52:55;;;;;;;26.85;13.95;;;2.70;70.40;;;;;;5037312;28;20049;-60
2020/12/22 05:55:29;;;;;;;24.35;13.65;;;2.70;70.20;;;;;;5037524;28;20040;-60
2020/12/22 05:58:14;;;;;;;25.05;15.43;;;2.70;70.30;;;;;;5041899;28;20033;-59
2020/12/22 06:00:42;;;;;;;21.27;12.30;;;2.70;70.10;;;;;;5036938;28;20017;-60
2020/12/22 06:03:12;;;;;;;21.00;12.23;;;2.60;70.20;;;;;;5053212;28;20025;-59
2020/12/22 06:05:44;;;;;;;20.95;12.88;;;2.60;70.20;;;;;;5032316;28;20028;-59
2020/12/22 06:08:11;;;;;;;24.92;13.98;;;2.60;70.20;;;;;;5053448;28;20444;-59
2020/12/22 06:10:39;;;;;;;25.50;14.82;;;2.60;70.40;;;;;;5037544;28;20056;-60
2020/12/22 06:13:06;;;;;;;27.45;16.08;;;2.60;70.60;;;;;;5040407;28;20021;-60
2020/12/22 06:15:33;;;;;;;21.88;13.27;;;2.60;70.70;;;;;;5045106;28;20445;-57
2020/12/22 06:17:59;;;;;;;22.38;12.75;;;2.70;70.80;;;;;;5051535;28;20032;-60
2020/12/22 06:20:27;;;;;;;21.58;12.93;;;2.70;70.60;;;;;;5046521;28;20013;-60
2020/12/22 06:23:01;;;;;;;21.92;12.15;;;2.70;70.60;;;;;;5038525;28;20030;-59
2020/12/22 06:25:27;;;;;;;26.13;14.23;;;2.70;70.30;;;;;;5048665;28;20017;-58
2020/12/22 06:27:53;;;;;;;26.80;14.73;;;2.80;70.70;;;;;;5048194;28;20045;-60
2020/12/22 06:30:29;;;;;;;30.25;16.60;;;2.80;70.50;;;;;;5036659;28;20060;-60
2020/12/22 06:32:55;;;;;;;24.23;14.15;;;2.80;70.40;;;;;;5042573;28;20025;-59
2020/12/22 06:35:33;;;;;;;20.75;12.55;;;2.80;70.40;;;;;;5042331;28;20416;-60
2020/12/22 06:37:59;;;;;;;20.13;11.88;;;2.80;70.30;;;;;;5040013;28;20036;-60
2020/12/22 06:40:54;;;;;;;22.23;12.32;;;2.80;70.30;;;;;;5045671;28;20028;-52
2020/12/22 06:43:45;;;;;;;24.20;14.00;;;2.80;70.20;;;;;;5037802;28;20132;-55
2020/12/22 06:46:33;;;;;;;25.15;13.50;;;2.90;70.40;;;;;;5045511;28;20334;-53
2020/12/22 06:48:59;;;;;;;22.15;11.82;;;2.90;70.20;;;;;;5040667;28;20032;-54
2020/12/22 06:51:31;;;;;;;27.85;14.95;;;2.90;70.60;;;;;;5043125;28;20098;-55
2020/12/22 06:53:58;;;;;;;24.58;13.25;;;2.90;70.30;;;;;;5044495;28;20033;-54
2020/12/22 06:56:44;;;;;;;23.63;14.23;;;2.90;70.40;;;;;;5052966;28;20029;-52
2020/12/22 06:59:12;;;;;;;27.55;14.18;;;2.90;70.10;;;;;;5054471;28;20024;-56
2020/12/22 07:01:45;;;;;;;21.42;12.93;;;3.00;70.20;;;;;;5045261;28;20026;-55
2020/12/22 07:04:17;;;;;;;34.42;19.95;;;3.00;70.20;;;;;;5042408;28;20040;-55
2020/12/22 07:07:02;;;;;;;34.35;16.55;;;3.00;70.00;;;;;;5043450;28;20082;-56
2020/12/22 07:09:35;;;;;;;24.75;15.27;;;3.00;70.00;;;;;;5049690;28;20139;-52
2020/12/22 07:12:11;;;;;;;28.15;15.23;;;3.00;70.00;;;;;;5045214;28;20032;-52
2020/12/22 07:14:48;;;;;;;23.42;12.30;;;3.00;69.90;;;;;;5048091;28;20037;-56
2020/12/22 07:17:18;;;;;;;24.90;14.15;;;3.10;70.20;;;;;;5051940;28;20084;-56
2020/12/22 07:19:47;;;;;;;20.23;12.25;;;3.10;70.00;;;;;;5046648;28;20038;-52
2020/12/22 07:22:14;;;;;;;22.83;13.73;;;3.10;70.10;;;;;;5051718;28;20105;-53
2020/12/22 07:24:41;;;;;;;21.98;12.60;;;3.10;69.30;;;;;;5041840;28;20431;-52
2020/12/22 07:27:08;;;;;;;19.77;12.43;;;3.00;69.00;;;;;;5042641;28;20101;-54
2020/12/22 07:29:41;;;;;;;24.33;13.75;;;3.00;69.30;;;;;;5046130;28;20060;-53
2020/12/22 07:32:07;;;;;;;27.88;15.75;;;2.90;69.20;;;;;;5042045;28;20060;-54
2020/12/22 07:34:35;;;;;;;24.08;14.10;;;2.80;68.90;;;;;;5048388;28;20035;-55
2020/12/22 07:37:04;;;;;;;24.00;14.05;;;2.80;69.20;;;;;;5044142;28;20477;-55
2020/12/22 07:39:31;;;;;;;26.02;14.93;;;2.70;69.40;;;;;;5045154;28;20025;-56
2020/12/22 07:42:06;;;;;;;27.25;13.82;;;2.60;69.30;;;;;;5043558;28;20089;-55
2020/12/22 07:44:32;;;;;;;23.88;12.90;;;2.50;69.50;;;;;;5038288;28;20093;-56
2020/12/22 07:46:57;;;;;;;24.55;13.27;;;2.40;69.60;;;;;;5039900;28;20370;-53
2020/12/22 07:49:24;;;;;;;23.48;13.93;;;2.30;69.90;;;;;;5040853;28;20033;-56
2020/12/22 07:51:50;;;;;;;23.00;13.35;;;2.30;70.00;;;;;;5041985;28;20378;-56
2020/12/22 07:54:16;;;;;;;25.05;13.98;;;2.30;70.40;;;;;;5044860;28;20040;-55
2020/12/22 07:56:43;;;;;;;26.23;13.50;;;2.30;70.80;;;;;;5042998;28;21703;-55
2020/12/22 07:59:14;;;;;;;24.00;14.00;;;2.30;70.60;;;;;;5041534;28;20357;-55
2020/12/22 08:01:42;;;;;;;23.23;14.02;;;2.30;71.00;;;;;;5045923;28;20033;-52
2020/12/22 08:04:22;;;;;;;27.23;15.18;;;2.30;71.10;;;;;;5038709;28;20037;-56
2020/12/22 08:06:57;;;;;;;25.08;13.18;;;2.50;71.50;;;;;;5040147;28;20041;-55
2020/12/22 08:09:31;;;;;;;27.67;13.43;;;2.50;71.50;;;;;;5033114;28;20037;-55
2020/12/22 08:12:02;;;;;;;22.27;13.02;;;2.60;71.10;;;;;;5035929;28;20016;-56
2020/12/22 08:14:30;;;;;;;24.70;13.57;;;2.70;70.90;;;;;;5046128;28;20025;-55
2020/12/22 08:17:07;;;;;;;21.45;12.82;;;2.70;70.50;;;;;;5043380;28;20039;-55
2020/12/22 08:19:36;;;;;;;31.38;14.88;;;2.70;70.40;;;;;;5041932;28;20090;-55
2020/12/22 08:22:04;;;;;;;24.80;13.45;;;2.70;70.40;;;;;;5039326;28;20029;-56
2020/12/22 08:24:32;;;;;;;25.23;13.52;;;2.60;70.00;;;;;;5041738;28;20052;-52
2020/12/22 08:27:00;;;;;;;21.45;12.02;;;2.60;70.20;;;;;;5043430;28;20061;-56
2020/12/22 08:29:28;;;;;;;19.13;11.45;;;2.50;70.40;;;;;;5045195;28;20042;-56
2020/12/22 08:32:00;;;;;;;22.73;11.82;;;2.50;70.70;;;;;;5041832;28;20079;-54
2020/12/22 08:34:27;;;;;;;20.08;11.20;;;2.50;70.50;;;;;;5039743;28;20022;-55
2020/12/22 08:36:53;;;;;;;26.00;13.98;;;2.50;70.90;;;;;;5037027;28;20104;-55
2020/12/22 08:39:21;;;;;;;26.75;16.20;;;2.50;71.00;;;;;;5040180;28;20057;-52
2020/12/22 08:41:49;;;;;;;29.48;19.70;;;2.40;71.10;;;;;;5039139;28;20025;-52
2020/12/22 08:44:15;;;;;;;30.50;17.00;;;2.40;71.30;;;;;;5032888;28;20021;-53
2020/12/22 08:46:42;;;;;;;25.42;15.50;;;2.50;71.60;;;;;;5034911;28;20033;-54
2020/12/22 08:49:15;;;;;;;22.42;13.48;;;2.50;71.20;;;;;;5035274;28;20033;-51
2020/12/22 08:51:42;;;;;;;22.67;14.57;;;2.40;71.10;;;;;;5035711;28;20052;-57
2020/12/22 08:54:08;;;;;;;31.27;16.25;;;2.40;71.10;;;;;;5029793;28;20036;-56
2020/12/22 08:56:34;;;;;;;26.00;15.52;;;2.30;71.50;;;;;;5037656;28;20036;-55
2020/12/22 08:59:05;;;;;;;31.50;17.83;;;2.30;72.00;;;;;;5035522;28;20139;-56
2020/12/22 09:01:51;;;;;;;26.00;13.77;;;2.30;71.90;;;;;;5036093;28;20514;-55
2020/12/22 09:04:26;;;;;;;28.15;18.05;;;2.30;71.70;;;;;;5032468;28;20115;-53
2020/12/22 09:06:52;;;;;;;21.67;16.55;;;2.30;71.70;;;;;;5036576;28;20021;-55
2020/12/22 09:09:24;;;;;;;35.40;25.75;;;2.20;71.80;;;;;;5035023;28;20444;-55
2020/12/22 09:11:50;;;;;;;25.60;15.23;;;2.20;72.10;;;;;;5038450;28;20043;-54
2020/12/22 09:14:19;;;;;;;28.75;21.08;;;2.20;72.10;;;;;;5036698;28;20351;-54
2020/12/22 09:16:56;;;;;;;25.30;13.95;;;2.30;72.50;;;;;;5031458;28;20060;-56
2020/12/22 09:19:28;;;;;;;28.02;18.17;;;2.30;72.40;;;;;;5025740;28;20028;-56
2020/12/22 09:22:00;;;;;;;21.38;12.65;;;2.30;72.20;;;;;;5031091;28;20164;-55
2020/12/22 09:24:26;;;;;;;26.38;16.20;;;2.30;72.20;;;;;;5032899;28;20029;-55
2020/12/22 09:26:56;;;;;;;30.20;18.48;;;2.30;72.50;;;;;;5031117;28;20464;-53
2020/12/22 09:29:22;;;;;;;26.02;15.02;;;2.40;72.80;;;;;;5032002;28;20049;-55
2020/12/22 09:31:48;;;;;;;20.80;13.02;;;2.40;72.50;;;;;;5028394;28;20032;-54
2020/12/22 09:34:14;;;;;;;16.85;10.82;;;2.50;72.20;;;;;;5030485;28;20047;-52
2020/12/22 09:36:40;;;;;;;19.35;11.93;;;2.50;72.00;;;;;;5033566;28;20025;-56
2020/12/22 09:39:06;;;;;;;21.02;11.70;;;2.50;72.00;;;;;;5030803;28;20033;-56
2020/12/22 09:41:32;;;;;;;18.10;10.38;;;2.60;72.30;;;;;;5032200;28;20047;-57
2020/12/22 09:43:58;;;;;;;13.02;9.90;;;2.70;72.20;;;;;;5037612;28;20458;-55
2020/12/22 09:46:24;;;;;;;17.17;10.75;;;2.70;71.90;;;;;;5036213;28;20029;-57
2020/12/22 09:48:49;;;;;;;24.42;15.10;;;2.80;71.50;;;;;;5037809;28;20025;-56
2020/12/22 09:51:16;;;;;;;16.92;11.75;;;2.80;71.60;;;;;;5027697;28;20041;-57
2020/12/22 09:53:42;;;;;;;18.58;11.40;;;2.80;71.10;;;;;;5033885;28;20021;-54
2020/12/22 09:56:08;;;;;;;17.35;11.18;;;2.70;71.40;;;;;;5027174;28;20095;-55
2020/12/22 09:58:34;;;;;;;16.92;10.23;;;2.80;71.90;;;;;;5032142;28;20029;-56
2020/12/22 10:00:59;;;;;;;23.75;13.85;;;2.80;71.80;;;;;;5031129;28;20520;-56
2020/12/22 10:03:25;;;;;;;21.80;14.60;;;2.90;71.50;;;;;;5033944;28;20029;-56
2020/12/22 10:05:51;;;;;;;24.05;17.23;;;2.90;71.00;;;;;;5027886;28;20569;-56
2020/12/22 10:08:16;;;;;;;17.65;12.20;;;2.80;70.80;;;;;;5033066;28;20061;-56
2020/12/22 10:10:42;;;;;;;19.05;13.18;;;2.70;70.80;;;;;;5031734;28;20163;-55
2020/12/22 10:13:08;;;;;;;18.45;12.32;;;2.60;71.00;;;;;;5031921;28;20035;-55
2020/12/22 10:15:33;;;;;;;19.38;12.23;;;2.60;71.40;;;;;;5027699;28;20029;-56
2020/12/22 10:17:59;;;;;;;17.77;13.18;;;2.60;71.70;;;;;;5027375;28;20044;-56
2020/12/22 10:20:25;;;;;;;20.00;12.38;;;2.60;71.80;;;;;;5027390;28;20071;-56
2020/12/22 10:22:50;;;;;;;20.88;13.95;;;2.60;71.50;;;;;;5026439;28;20481;-56
2020/12/22 10:25:16;;;;;;;16.33;11.43;;;2.50;71.20;;;;;;5028473;28;20033;-56
2020/12/22 10:27:42;;;;;;;16.50;11.32;;;2.50;71.50;;;;;;5029119;28;20032;-57
2020/12/22 10:30:07;;;;;;;20.45;12.63;;;2.50;71.60;;;;;;5026617;28;20047;-56
2020/12/22 10:32:33;;;;;;;17.67;11.13;;;2.40;71.60;;;;;;5025476;28;20033;-57
2020/12/22 10:35:00;;;;;;;29.38;17.65;;;2.40;72.00;;;;;;5030540;28;20121;-56
2020/12/22 10:37:26;;;;;;;21.90;14.68;;;2.40;72.20;;;;;;5028710;28;20368;-56
2020/12/22 10:39:52;;;;;;;18.95;11.23;;;2.50;72.40;;;;;;5026898;28;20108;-56
2020/12/22 10:42:19;;;;;;;14.93;9.38;;;2.50;72.20;;;;;;5028425;28;20028;-56
2020/12/22 10:44:45;;;;;;;14.43;10.10;;;2.50;72.10;;;;;;5032606;28;20041;-56
2020/12/22 10:47:11;;;;;;;14.50;9.23;;;2.50;72.00;;;;;;5034627;28;20553;-57
2020/12/22 10:49:37;;;;;;;14.68;9.38;;;2.50;71.80;;;;;;5026887;28;20056;-56
2020/12/22 10:52:03;;;;;;;14.02;9.85;;;2.50;71.90;;;;;;5030054;28;20115;-54
2020/12/22 10:54:29;;;;;;;16.65;10.52;;;2.50;71.90;;;;;;5030848;28;20029;-56
2020/12/22 10:56:55;;;;;;;22.27;13.27;;;2.50;72.20;;;;;;5037933;28;20103;-57
2020/12/22 10:59:20;;;;;;;17.30;11.77;;;2.60;72.40;;;;;;5034008;28;20435;-56
2020/12/22 11:01:49;;;;;;;17.23;11.93;;;2.70;72.30;;;;;;5032608;28;20052;-57
2020/12/22 11:04:15;;;;;;;16.60;11.15;;;2.70;72.10;;;;;;5029592;28;20551;-55
2020/12/22 11:09:09;;;;;;;17.70;11.02;;;2.60;71.20;;;;;;5031632;28;20044;-57
2020/12/22 11:11:34;;;;;;;18.52;11.23;;;2.50;72.00;;;;;;5032555;28;21202;-56
2020/12/22 11:14:00;;;;;;;14.98;10.50;;;2.50;71.80;;;;;;5035742;28;20055;-55
2020/12/22 11:16:29;;;;;;;19.70;11.55;;;2.50;71.50;;;;;;5036163;28;20029;-54
2020/12/22 11:18:56;;;;;;;18.83;11.07;;;2.40;71.60;;;;;;5034831;28;20075;-56
2020/12/22 11:21:24;;;;;;;17.35;11.00;;;2.30;71.90;;;;;;5032694;28;20044;-56
2020/12/22 11:23:50;;;;;;;15.43;10.27;;;2.20;72.00;;;;;;5035806;28;20095;-56
2020/12/22 11:26:21;;;;;;;16.05;10.93;;;2.20;72.30;;;;;;5031868;28;20036;-53
2020/12/22 11:28:47;;;;;;;16.08;10.07;;;2.30;72.60;;;;;;5034746;28;20445;-56
2020/12/22 11:31:13;;;;;;;18.08;9.88;;;2.30;72.50;;;;;;5032550;28;20028;-54
2020/12/22 11:33:42;;;;;;;15.43;9.82;;;2.20;72.30;;;;;;5039003;28;20055;-53
2020/12/22 11:36:12;;;;;;;14.98;9.88;;;2.20;72.70;;;;;;5034207;28;20032;-56
2020/12/22 11:38:39;;;;;;;17.70;11.00;;;2.30;72.80;;;;;;5036704;28;20052;-56
2020/12/22 11:41:04;;;;;;;20.17;12.05;;;2.30;73.10;;;;;;5029056;28;20025;-56
2020/12/22 11:43:31;;;;;;;20.42;12.77;;;2.40;73.30;;;;;;5026779;28;20496;-56
2020/12/22 11:45:57;;;;;;;19.10;11.82;;;2.50;73.30;;;;;;5033744;28;20033;-56
2020/12/22 11:48:24;;;;;;;16.52;11.10;;;2.60;73.30;;;;;;5022823;28;20066;-56
2020/12/22 11:50:54;;;;;;;14.68;9.35;;;2.70;73.30;;;;;;5026071;28;20037;-56
2020/12/22 11:53:21;;;;;;;20.42;13.20;;;2.80;73.00;;;;;;5030451;28;20094;-56
2020/12/22 11:55:47;;;;;;;14.30;9.65;;;2.80;72.40;;;;;;5028889;28;20394;-55
2020/12/22 11:58:13;;;;;;;13.98;9.70;;;2.80;72.40;;;;;;5035193;28;20025;-53
2020/12/22 12:00:38;;;;;;;16.98;10.00;;;2.90;73.00;;;;;;5022568;28;20137;-56
2020/12/22 12:03:04;;;;;;;14.35;10.07;;;2.90;72.20;;;;;;5025415;28;20048;-56
2020/12/22 12:05:30;;;;;;;15.70;10.40;;;2.90;72.40;;;;;;5030848;28;20036;-54
2020/12/22 12:07:56;;;;;;;11.90;8.65;;;2.90;72.00;;;;;;5033877;28;20030;-56
2020/12/22 12:10:21;;;;;;;13.32;9.07;;;2.90;71.30;;;;;;5028342;28;20052;-55
2020/12/22 12:12:47;;;;;;;12.65;8.85;;;2.80;71.10;;;;;;5030816;28;20713;-56
2020/12/22 12:15:13;;;;;;;21.65;11.18;;;2.70;71.00;;;;;;5037458;28;20108;-53
2020/12/22 12:17:38;;;;;;;15.20;10.80;;;2.60;71.30;;;;;;5032689;28;20033;-55
2020/12/22 12:20:05;;;;;;;17.05;10.75;;;2.60;72.00;;;;;;5028285;28;20128;-57
2020/12/22 12:22:32;;;;;;;15.25;9.15;;;2.70;72.50;;;;;;5035188;28;20787;-57
2020/12/22 12:24:58;;;;;;;17.23;10.73;;;2.70;72.60;;;;;;5028928;28;20147;-57
2020/12/22 12:27:24;;;;;;;18.80;11.50;;;2.80;72.30;;;;;;5028873;28;20056;-56
2020/12/22 12:29:50;;;;;;;19.67;12.25;;;2.90;72.40;;;;;;5028900;28;20510;-53
2020/12/22 12:32:15;;;;;;;16.80;11.25;;;2.90;72.40;;;;;;5032286;28;20094;-54
2020/12/22 12:34:41;;;;;;;19.95;12.43;;;3.10;72.50;;;;;;5033510;28;20036;-57
2020/12/22 12:37:07;;;;;;;16.02;11.00;;;3.10;72.10;;;;;;5026710;28;20029;-57
2020/12/22 12:39:33;;;;;;;15.88;9.82;;;3.20;71.50;;;;;;5029983;28;20029;-53
2020/12/22 12:41:58;;;;;;;17.50;11.70;;;3.10;70.80;;;;;;5031977;28;20068;-56
2020/12/22 12:44:24;;;;;;;17.40;11.15;;;3.00;70.50;;;;;;5036550;28;20069;-56